createdAt,value
2023-11-02T00:00:10.694Z,2.70
2023-11-02T00:02:41.887Z,2.70
2023-11-02T00:06:01.689Z,2.67
2023-11-02T00:08:38.258Z,2.55
2023-11-02T00:11:09.659Z,2.60
2023-11-02T00:13:39.413Z,2.63
2023-11-02T00:16:09.904Z,2.80
2023-11-02T00:18:41.113Z,2.50
2023-11-02T00:21:24.974Z,2.63
2023-11-02T00:23:54.606Z,2.65
2023-11-02T00:26:26.214Z,3.08
2023-11-02T00:28:56.284Z,2.75
2023-11-02T00:31:25.910Z,2.88
2023-11-02T00:33:57.353Z,2.95
2023-11-02T00:36:27.111Z,2.63
2023-11-02T00:38:59.910Z,2.70
2023-11-02T00:41:29.695Z,3.08
2023-11-02T00:43:59.854Z,2.90
2023-11-02T00:46:30.014Z,2.80
2023-11-02T00:49:01.381Z,2.78
2023-11-02T00:51:32.879Z,2.42
2023-11-02T00:54:04.290Z,2.95
2023-11-02T00:56:39.088Z,2.70
2023-11-02T00:59:09.121Z,2.75
2023-11-02T01:01:39.348Z,2.72
2023-11-02T01:04:58.139Z,2.70
2023-11-02T01:07:30.430Z,2.83
2023-11-02T01:10:04.989Z,3.10
2023-11-02T01:12:52.346Z,2.72
2023-11-02T01:16:12.968Z,2.80
2023-11-02T01:18:48.233Z,2.70
2023-11-02T01:21:19.861Z,2.67
2023-11-02T01:23:59.857Z,2.83
2023-11-02T01:27:03.247Z,2.60
2023-11-02T01:29:33.590Z,3.03
2023-11-02T01:32:05.029Z,2.92
2023-11-02T01:34:35.551Z,3.20
2023-11-02T01:37:06.945Z,2.85
2023-11-02T01:40:11.292Z,3.10
2023-11-02T01:42:46.737Z,3.10
2023-11-02T01:45:27.215Z,2.83
2023-11-02T01:48:12.542Z,2.97
2023-11-02T01:50:54.862Z,2.95
2023-11-02T01:53:44.214Z,3.13
2023-11-02T01:56:35.917Z,2.67
2023-11-02T01:59:36.877Z,3.00
2023-11-02T02:02:29.321Z,3.17
2023-11-02T02:05:11.797Z,3.00
2023-11-02T02:08:03.193Z,2.65
2023-11-02T02:11:00.546Z,2.78
2023-11-02T02:13:48.044Z,2.97
2023-11-02T02:16:36.285Z,3.00
2023-11-02T02:19:35.571Z,2.83
2023-11-02T02:22:13.507Z,3.03
2023-11-02T02:24:55.571Z,3.17
2023-11-02T02:28:17.131Z,3.30
2023-11-02T02:31:23.558Z,3.17
2023-11-02T02:34:51.690Z,2.85
2023-11-02T02:37:42.337Z,3.00
2023-11-02T02:40:20.908Z,3.03
2023-11-02T02:42:52.965Z,3.03
2023-11-02T02:45:24.822Z,3.25
2023-11-02T02:47:57.394Z,3.50
2023-11-02T02:50:31.608Z,3.72
2023-11-02T02:53:06.770Z,3.45
2023-11-02T02:55:40.961Z,3.50
2023-11-02T02:58:15.694Z,3.47
2023-11-02T03:00:47.405Z,3.40
2023-11-02T03:03:25.294Z,3.78
2023-11-02T03:05:58.912Z,3.80
2023-11-02T03:08:33.492Z,3.58
2023-11-02T03:11:12.653Z,3.60
2023-11-02T03:13:49.163Z,3.33
2023-11-02T03:16:23.128Z,3.30
2023-11-02T03:18:52.951Z,3.50
2023-11-02T03:21:22.785Z,3.42
2023-11-02T03:24:10.012Z,3.58
2023-11-02T03:26:57.573Z,3.42
2023-11-02T03:29:53.970Z,3.67
2023-11-02T03:32:32.226Z,3.75
2023-11-02T03:35:17.205Z,3.60
2023-11-02T03:38:03.442Z,3.25
2023-11-02T03:41:01.903Z,3.50
2023-11-02T03:43:45.043Z,3.30
2023-11-02T03:46:38.779Z,3.63
2023-11-02T03:49:26.945Z,3.97
2023-11-02T03:52:11.829Z,3.75
2023-11-02T03:55:06.300Z,3.40
2023-11-02T03:57:58.503Z,3.55
2023-11-02T04:00:30.053Z,3.65
2023-11-02T04:03:04.921Z,3.60
2023-11-02T04:05:41.351Z,3.53
2023-11-02T04:08:18.823Z,3.78
2023-11-02T04:10:59.824Z,3.25
2023-11-02T04:13:42.376Z,3.63
2023-11-02T04:16:12.037Z,3.38
2023-11-02T04:18:45.085Z,3.80
2023-11-02T04:21:15.713Z,4.07
2023-11-02T04:23:45.465Z,3.90
2023-11-02T04:26:15.540Z,4.13
2023-11-02T04:28:46.698Z,4.00
2023-11-02T04:31:16.437Z,3.85
2023-11-02T04:33:46.798Z,3.95
2023-11-02T04:36:16.464Z,3.78
2023-11-02T04:38:46.329Z,3.90
2023-11-02T04:41:15.935Z,4.03
2023-11-02T04:43:47.706Z,4.28
2023-11-02T04:46:17.997Z,4.25
2023-11-02T04:48:47.897Z,4.13
2023-11-02T04:51:17.946Z,4.00
2023-11-02T04:53:47.612Z,4.35
2023-11-02T04:56:21.105Z,3.88
2023-11-02T04:58:52.221Z,3.92
2023-11-02T05:01:22.034Z,4.20
2023-11-02T05:03:53.001Z,4.32
2023-11-02T05:06:22.910Z,4.40
2023-11-02T05:08:52.552Z,3.97
2023-11-02T05:11:36.919Z,4.20
2023-11-02T05:14:10.800Z,4.15
2023-11-02T05:16:40.511Z,4.28
2023-11-02T05:19:12.411Z,3.97
2023-11-02T05:21:51.114Z,4.47
2023-11-02T05:24:20.776Z,4.28
2023-11-02T05:26:50.458Z,4.05
2023-11-02T05:29:22.823Z,4.30
2023-11-02T05:31:52.964Z,4.00
2023-11-02T05:34:22.703Z,4.10
2023-11-02T05:36:52.463Z,4.10
2023-11-02T05:39:22.511Z,4.07
2023-11-02T05:41:52.313Z,3.92
2023-11-02T05:44:23.656Z,4.00
2023-11-02T05:46:54.164Z,3.83
2023-11-02T05:49:23.921Z,4.18
2023-11-02T05:51:53.559Z,3.72
2023-11-02T05:54:36.592Z,4.03
2023-11-02T05:57:07.502Z,3.92
2023-11-02T05:59:38.595Z,3.92
2023-11-02T06:02:09.021Z,3.90
2023-11-02T06:04:38.729Z,4.07
2023-11-02T06:07:08.560Z,3.83
2023-11-02T06:09:39.917Z,3.70
2023-11-02T06:12:10.745Z,4.07
2023-11-02T06:14:44.073Z,3.95
2023-11-02T06:17:14.451Z,3.85
2023-11-02T06:19:44.207Z,4.05
2023-11-02T06:22:15.817Z,4.13
2023-11-02T06:24:47.305Z,4.07
2023-11-02T06:27:19.791Z,4.00
2023-11-02T06:29:51.630Z,4.35
2023-11-02T06:32:21.638Z,4.00
2023-11-02T06:34:51.276Z,4.30
2023-11-02T06:37:22.454Z,4.38
2023-11-02T06:39:52.064Z,4.22
2023-11-02T06:42:21.882Z,4.10
2023-11-02T06:44:53.105Z,4.10
2023-11-02T06:47:22.842Z,4.10
2023-11-02T06:49:52.509Z,4.28
2023-11-02T06:52:22.221Z,4.13
2023-11-02T06:54:51.874Z,4.20
2023-11-02T06:57:21.719Z,4.78
2023-11-02T06:59:53.555Z,4.47
2023-11-02T07:02:24.675Z,4.25
2023-11-02T07:04:59.442Z,4.38
2023-11-02T07:07:29.215Z,4.07
2023-11-02T07:09:59.594Z,4.43
2023-11-02T07:12:29.216Z,3.80
2023-11-02T07:15:00.367Z,4.20
2023-11-02T07:17:34.931Z,4.13
2023-11-02T07:20:05.034Z,3.42
2023-11-02T07:22:37.782Z,3.35
2023-11-02T07:25:13.390Z,3.22
2023-11-02T07:27:43.358Z,2.92
2023-11-02T07:30:16.634Z,3.53
2023-11-02T07:32:46.639Z,3.10
2023-11-02T07:35:16.330Z,3.25
2023-11-02T07:37:55.271Z,3.30
2023-11-02T07:40:25.442Z,3.05
2023-11-02T07:42:55.192Z,3.40
2023-11-02T07:45:26.907Z,3.10
2023-11-02T07:47:56.656Z,3.28
2023-11-02T07:50:26.345Z,3.00
2023-11-02T07:52:56.032Z,3.70
2023-11-02T07:55:25.792Z,3.45
2023-11-02T07:57:57.085Z,3.05
2023-11-02T08:00:31.838Z,3.55
2023-11-02T08:03:02.179Z,3.55
2023-11-02T08:05:35.401Z,3.58
2023-11-02T08:08:05.296Z,3.65
2023-11-02T08:10:35.589Z,3.45
2023-11-02T08:13:05.288Z,3.35
2023-11-02T08:15:36.829Z,3.10
2023-11-02T08:18:23.216Z,3.22
2023-11-02T08:20:53.884Z,3.13
2023-11-02T08:23:23.595Z,3.58
2023-11-02T08:25:53.372Z,3.00
2023-11-02T08:28:23.148Z,3.30
2023-11-02T08:30:54.452Z,3.17
2023-11-02T08:33:24.670Z,3.08
2023-11-02T08:35:54.476Z,3.10
2023-11-02T08:38:24.122Z,2.80
2023-11-02T08:40:53.987Z,2.85
2023-11-02T08:43:24.607Z,3.50
2023-11-02T08:45:55.868Z,3.60
2023-11-02T08:48:25.517Z,3.00
2023-11-02T08:50:55.395Z,3.40
2023-11-02T08:53:25.071Z,3.45
2023-11-02T08:55:54.745Z,3.35
2023-11-02T08:58:24.429Z,3.33
2023-11-02T09:00:55.754Z,3.22
2023-11-02T09:03:25.506Z,3.05
2023-11-02T09:05:55.392Z,2.90
2023-11-02T09:08:25.085Z,3.03
2023-11-02T09:10:54.663Z,2.85
2023-11-02T09:13:24.364Z,2.88
2023-11-02T09:15:55.577Z,3.05
2023-11-02T09:18:25.201Z,3.20
2023-11-02T09:20:56.024Z,3.13
2023-11-02T09:23:27.724Z,2.88
2023-11-02T09:25:58.536Z,2.78
2023-11-02T09:28:31.131Z,2.95
2023-11-02T09:31:06.701Z,2.90
2023-11-02T09:33:36.824Z,2.97
2023-11-02T09:36:08.532Z,3.00
2023-11-02T09:38:40.204Z,2.95
2023-11-02T09:41:10.175Z,3.05
2023-11-02T09:43:42.641Z,3.30
2023-11-02T09:46:15.443Z,3.05
2023-11-02T09:48:45.477Z,3.20
2023-11-02T09:51:15.767Z,3.13
2023-11-02T09:53:45.465Z,3.25
2023-11-02T09:56:17.756Z,2.80
2023-11-02T09:58:48.106Z,3.20
2023-11-02T10:01:20.762Z,2.83
2023-11-02T10:03:50.384Z,2.75
2023-11-02T10:06:20.721Z,2.83
2023-11-02T10:08:50.373Z,2.90
2023-11-02T10:11:21.586Z,2.72
2023-11-02T10:13:52.268Z,2.80
2023-11-02T10:16:28.078Z,2.95
2023-11-02T10:18:57.993Z,3.10
2023-11-02T10:21:27.813Z,2.70
2023-11-02T10:24:00.469Z,2.67
2023-11-02T10:26:30.854Z,2.80
2023-11-02T10:29:03.877Z,2.95
2023-11-02T10:31:38.133Z,2.90
2023-11-02T10:34:11.147Z,2.75
2023-11-02T10:36:41.351Z,2.80
2023-11-02T10:39:11.731Z,2.95
2023-11-02T10:41:42.034Z,2.90
2023-11-02T10:44:12.941Z,2.97
2023-11-02T10:46:46.380Z,2.90
2023-11-02T10:49:18.134Z,2.92
2023-11-02T10:51:53.706Z,2.83
2023-11-02T10:54:38.060Z,2.88
2023-11-02T10:57:17.971Z,2.72
2023-11-02T10:59:49.400Z,2.80
2023-11-02T11:02:21.883Z,2.58
2023-11-02T11:04:52.110Z,3.08
2023-11-02T11:07:23.957Z,2.72
2023-11-02T11:09:54.734Z,2.72
2023-11-02T11:12:26.140Z,2.83
2023-11-02T11:14:57.789Z,2.83
2023-11-02T11:17:29.722Z,2.90
2023-11-02T11:20:02.669Z,2.90
2023-11-02T11:22:36.411Z,3.10
2023-11-02T11:25:10.064Z,3.22
2023-11-02T11:27:41.825Z,3.05
2023-11-02T11:30:41.294Z,2.90
2023-11-02T11:33:52.710Z,3.20
2023-11-02T11:36:23.915Z,3.03
2023-11-02T11:38:55.067Z,2.72
2023-11-02T11:41:47.718Z,3.28
2023-11-02T11:44:22.252Z,3.25
2023-11-02T11:46:55.799Z,3.65
2023-11-02T11:49:50.506Z,3.72
2023-11-02T11:52:29.592Z,3.67
2023-11-02T11:54:59.389Z,3.40
2023-11-02T11:57:58.957Z,3.38
2023-11-02T12:00:30.228Z,3.42
2023-11-02T12:03:05.915Z,3.17
2023-11-02T12:05:56.461Z,3.03
2023-11-02T12:08:27.931Z,3.47
2023-11-02T12:11:00.385Z,3.72
2023-11-02T12:13:30.940Z,3.47
2023-11-02T12:16:03.363Z,2.78
2023-11-02T12:18:35.661Z,3.33
2023-11-02T12:21:16.888Z,3.42
2023-11-02T12:23:47.091Z,3.20
2023-11-02T12:26:17.496Z,2.97
2023-11-02T12:28:50.584Z,3.13
2023-11-02T12:31:32.710Z,3.17
2023-11-02T12:34:05.249Z,3.10
2023-11-02T12:36:37.441Z,2.80
2023-11-02T12:39:16.134Z,3.58
2023-11-02T12:41:49.172Z,2.97
2023-11-02T12:44:21.593Z,3.55
2023-11-02T12:46:54.807Z,3.38
2023-11-02T12:49:27.253Z,3.25
2023-11-02T12:52:11.050Z,3.05
2023-11-02T12:54:40.922Z,3.00
2023-11-02T12:57:12.853Z,2.95
2023-11-02T12:59:43.985Z,2.85
2023-11-02T13:02:15.494Z,2.88
2023-11-02T13:04:54.674Z,2.78
2023-11-02T13:07:33.516Z,2.80
2023-11-02T13:10:08.254Z,2.72
2023-11-02T13:12:38.283Z,2.45
2023-11-02T13:15:11.437Z,2.42
2023-11-02T13:17:44.941Z,2.58
2023-11-02T13:20:17.174Z,2.40
2023-11-02T13:22:49.869Z,2.42
2023-11-02T13:25:19.869Z,2.50
2023-11-02T13:27:53.137Z,2.50
2023-11-02T13:30:24.208Z,2.50
2023-11-02T13:33:05.724Z,2.25
2023-11-02T13:35:36.466Z,2.33
2023-11-02T13:38:10.326Z,2.47
2023-11-02T13:40:40.209Z,2.50
2023-11-02T13:43:11.091Z,2.20
2023-11-02T13:45:41.289Z,2.78
2023-11-02T13:48:14.620Z,2.40
2023-11-02T13:50:44.597Z,2.50
2023-11-02T13:53:18.562Z,2.40
2023-11-02T13:55:48.578Z,2.67
2023-11-02T13:58:19.131Z,2.35
2023-11-02T14:00:49.471Z,2.47
2023-11-02T14:03:20.917Z,2.60
2023-11-02T14:05:53.143Z,2.38
2023-11-02T14:08:27.422Z,2.70
2023-11-02T14:10:57.233Z,2.60
2023-11-02T14:13:27.006Z,2.70
2023-11-02T14:15:57.113Z,2.53
2023-11-02T14:18:26.814Z,2.53
2023-11-02T14:20:56.529Z,2.50
2023-11-02T14:23:28.190Z,2.53
2023-11-02T14:26:01.079Z,2.63
2023-11-02T14:28:31.122Z,2.60
2023-11-02T14:31:00.929Z,2.40
2023-11-02T14:33:31.664Z,2.60
2023-11-02T14:36:08.579Z,2.58
2023-11-02T14:38:39.829Z,2.28
2023-11-02T14:41:09.910Z,2.42
2023-11-02T14:43:39.586Z,2.40
2023-11-02T14:46:10.918Z,2.42
2023-11-02T14:48:41.356Z,2.67
2023-11-02T14:51:11.870Z,2.22
2023-11-02T14:53:44.161Z,2.40
2023-11-02T14:56:13.918Z,2.22
2023-11-02T14:58:43.794Z,2.13
2023-11-02T15:01:13.524Z,2.30
2023-11-02T15:03:43.841Z,2.13
2023-11-02T15:06:22.248Z,2.38
2023-11-02T15:09:01.430Z,2.30
2023-11-02T15:11:37.879Z,2.30
2023-11-02T15:14:12.318Z,2.40
2023-11-02T15:16:46.198Z,2.40
2023-11-02T15:19:16.029Z,2.28
2023-11-02T15:21:48.226Z,2.30
2023-11-02T15:24:19.514Z,2.30
2023-11-02T15:26:49.479Z,2.30
2023-11-02T15:29:19.141Z,2.45
2023-11-02T15:31:48.867Z,2.30
2023-11-02T15:34:23.203Z,2.45
2023-11-02T15:36:53.213Z,2.30
2023-11-02T15:39:26.203Z,2.25
2023-11-02T15:41:59.888Z,2.40
2023-11-02T15:44:29.772Z,2.47
2023-11-02T15:47:04.738Z,2.28
2023-11-02T15:49:36.072Z,2.35
2023-11-02T15:52:06.461Z,2.22
2023-11-02T15:54:39.398Z,2.20
2023-11-02T15:57:12.216Z,2.15
2023-11-02T15:59:43.792Z,2.40
2023-11-02T16:02:14.862Z,2.15
2023-11-02T16:04:46.949Z,2.17
2023-11-02T16:07:17.101Z,2.33
2023-11-02T16:09:49.285Z,2.30
2023-11-02T16:12:19.170Z,2.30
2023-11-02T16:14:48.910Z,2.38
2023-11-02T16:17:18.918Z,2.42
2023-11-02T16:19:48.738Z,3.38
2023-11-02T16:22:18.451Z,4.40
2023-11-02T16:24:49.807Z,4.35
2023-11-02T16:27:19.693Z,4.78
2023-11-02T16:29:49.389Z,5.88
2023-11-02T16:32:19.367Z,6.07
2023-11-02T16:34:58.690Z,5.60
2023-11-02T16:37:36.821Z,9.38
2023-11-02T16:40:13.607Z,9.05
2023-11-02T16:42:43.394Z,6.82
2023-11-02T16:45:14.462Z,7.63
2023-11-02T16:47:44.278Z,8.57
2023-11-02T16:50:18.344Z,9.43
2023-11-02T16:52:48.149Z,7.45
2023-11-02T16:55:20.205Z,6.80
2023-11-02T16:57:50.601Z,6.22
2023-11-02T17:00:21.040Z,5.85
2023-11-02T17:02:50.900Z,4.65
2023-11-02T17:05:22.413Z,4.63
2023-11-02T17:07:52.194Z,3.60
2023-11-02T17:10:23.574Z,3.83
2023-11-02T17:12:56.173Z,4.20
2023-11-02T17:15:27.273Z,4.80
2023-11-02T17:17:57.034Z,4.80
2023-11-02T17:20:26.704Z,4.20
2023-11-02T17:23:00.499Z,3.40
2023-11-02T17:25:32.448Z,3.25
2023-11-02T17:28:02.437Z,3.08
2023-11-02T17:30:32.210Z,2.80
2023-11-02T17:33:02.136Z,3.05
2023-11-02T17:35:31.856Z,2.85
2023-11-02T17:38:03.349Z,2.67
2023-11-02T17:40:34.553Z,2.85
2023-11-02T17:43:14.537Z,2.45
2023-11-02T17:45:44.582Z,2.55
2023-11-02T17:48:17.242Z,2.20
2023-11-02T17:50:48.251Z,2.30
2023-11-02T17:53:27.107Z,2.40
2023-11-02T17:55:58.858Z,2.40
2023-11-02T17:58:32.836Z,2.10
2023-11-02T18:01:08.155Z,2.00
2023-11-02T18:03:38.103Z,2.17
2023-11-02T18:06:09.987Z,2.20
2023-11-02T18:08:40.106Z,2.40
2023-11-02T18:11:11.386Z,2.10
2023-11-02T18:13:41.216Z,2.30
2023-11-02T18:16:14.874Z,2.10
2023-11-02T18:18:44.801Z,2.10
2023-11-02T18:21:14.608Z,2.30
2023-11-02T18:23:44.324Z,2.22
2023-11-02T18:26:16.648Z,2.20
2023-11-02T18:28:46.581Z,2.30
2023-11-02T18:31:19.601Z,2.40
2023-11-02T18:33:52.319Z,2.35
2023-11-02T18:36:23.666Z,2.17
2023-11-02T18:39:28.612Z,2.20
2023-11-02T18:42:17.851Z,2.10
2023-11-02T18:45:31.914Z,2.17
2023-11-02T18:48:06.217Z,2.03
2023-11-02T18:50:35.953Z,2.13
2023-11-02T18:53:10.618Z,2.10
2023-11-02T18:55:44.350Z,2.13
2023-11-02T18:58:17.208Z,2.38
2023-11-02T19:00:47.081Z,2.40
2023-11-02T19:03:16.945Z,2.13
2023-11-02T19:05:47.952Z,1.90
2023-11-02T19:08:19.629Z,2.22
2023-11-02T19:10:49.451Z,2.00
2023-11-02T19:13:21.085Z,2.15
2023-11-02T19:15:51.715Z,2.00
2023-11-02T19:18:22.261Z,1.98
2023-11-02T19:20:54.807Z,2.10
2023-11-02T19:23:24.805Z,2.05
2023-11-02T19:25:54.759Z,1.80
2023-11-02T19:28:26.015Z,1.98
2023-11-02T19:30:55.986Z,2.20
2023-11-02T19:33:25.870Z,2.05
2023-11-02T19:35:55.658Z,2.25
2023-11-02T19:38:25.362Z,2.10
2023-11-02T19:40:56.596Z,2.08
2023-11-02T19:43:27.795Z,1.90
2023-11-02T19:45:58.062Z,2.40
2023-11-02T19:48:29.457Z,2.05
2023-11-02T19:50:59.329Z,2.10
2023-11-02T19:53:29.438Z,2.20
2023-11-02T19:55:59.207Z,2.20
2023-11-02T19:58:31.586Z,2.10
2023-11-02T20:01:01.435Z,2.20
2023-11-02T20:03:31.407Z,2.15
2023-11-02T20:06:02.766Z,1.85
2023-11-02T20:08:33.428Z,1.95
2023-11-02T20:11:04.675Z,2.05
2023-11-02T20:13:36.049Z,2.10
2023-11-02T20:16:06.496Z,2.05
2023-11-02T20:18:37.783Z,2.20
2023-11-02T20:21:12.062Z,2.10
2023-11-02T20:23:41.971Z,2.22
2023-11-02T20:26:14.826Z,1.98
2023-11-02T20:28:46.078Z,2.10
2023-11-02T20:31:24.976Z,2.00
2023-11-02T20:34:04.200Z,2.15
2023-11-02T20:36:34.275Z,1.98
2023-11-02T20:39:04.062Z,2.20
2023-11-02T20:41:34.229Z,1.95
2023-11-02T20:44:06.332Z,2.10
2023-11-02T20:46:39.745Z,2.10
2023-11-02T20:49:10.595Z,2.20
2023-11-02T20:51:41.588Z,2.00
2023-11-02T20:54:12.636Z,2.05
2023-11-02T20:56:44.912Z,2.00
2023-11-02T20:59:16.354Z,1.90
2023-11-02T21:01:46.449Z,2.30
2023-11-02T21:04:24.427Z,1.85
2023-11-02T21:07:00.125Z,2.10
2023-11-02T21:09:31.314Z,1.88
2023-11-02T21:12:02.873Z,2.00
2023-11-02T21:14:34.160Z,2.22
2023-11-02T21:17:04.320Z,2.25
2023-11-02T21:19:34.120Z,2.08
2023-11-02T21:22:03.961Z,1.83
2023-11-02T21:24:40.102Z,2.17
2023-11-02T21:27:11.534Z,1.98
2023-11-02T21:29:47.058Z,2.10
2023-11-02T21:32:16.989Z,1.92
2023-11-02T21:34:49.363Z,2.10
2023-11-02T21:37:22.192Z,2.10
2023-11-02T21:39:52.023Z,1.98
2023-11-02T21:42:24.037Z,2.10
2023-11-02T21:44:55.369Z,2.05
2023-11-02T21:47:25.240Z,2.10
2023-11-02T21:49:55.024Z,1.88
2023-11-02T21:52:25.243Z,2.20
2023-11-02T21:54:55.665Z,2.00
2023-11-02T21:57:25.794Z,2.17
2023-11-02T21:59:57.019Z,2.10
2023-11-02T22:02:26.576Z,2.13
2023-11-02T22:04:56.677Z,2.30
2023-11-02T22:07:26.280Z,2.30
2023-11-02T22:09:56.069Z,2.10
2023-11-02T22:12:26.556Z,2.40
2023-11-02T22:14:57.968Z,2.15
2023-11-02T22:17:27.576Z,2.53
2023-11-02T22:19:57.173Z,2.00
2023-11-02T22:22:29.569Z,2.13
2023-11-02T22:24:59.384Z,2.25
2023-11-02T22:27:28.925Z,2.22
2023-11-02T22:30:00.279Z,1.90
2023-11-02T22:32:29.949Z,2.05
2023-11-02T22:35:00.105Z,1.95
2023-11-02T22:37:29.751Z,2.10
2023-11-02T22:39:59.506Z,2.10
2023-11-02T22:42:29.027Z,2.20
2023-11-02T22:45:00.821Z,2.38
2023-11-02T22:47:30.436Z,2.50
2023-11-02T22:50:02.120Z,2.45
2023-11-02T22:52:33.275Z,2.38
2023-11-02T22:55:02.932Z,2.17
2023-11-02T22:57:33.394Z,2.38
2023-11-02T23:00:09.143Z,2.40
2023-11-02T23:02:38.724Z,2.28
2023-11-02T23:05:10.326Z,2.20
2023-11-02T23:07:41.684Z,2.30
2023-11-02T23:10:12.240Z,2.40
2023-11-02T23:12:43.132Z,2.15
2023-11-02T23:15:15.923Z,2.17
2023-11-02T23:17:45.334Z,2.33
2023-11-02T23:20:16.222Z,2.30
2023-11-02T23:22:47.631Z,2.35
2023-11-02T23:25:17.505Z,2.22
2023-11-02T23:27:47.065Z,2.45
2023-11-02T23:30:19.227Z,2.05
2023-11-02T23:32:51.051Z,2.50
2023-11-02T23:35:21.193Z,2.55
2023-11-02T23:37:50.912Z,2.90
2023-11-02T23:40:21.724Z,3.03
2023-11-02T23:42:52.852Z,2.80
2023-11-02T23:45:24.589Z,3.50
2023-11-02T23:47:55.001Z,3.25
2023-11-02T23:50:24.670Z,3.50
2023-11-02T23:52:54.203Z,3.33
2023-11-02T23:55:23.898Z,3.60
2023-11-02T23:57:53.785Z,3.60
